Latest Weather Observations for Cato Island

IDQ60801

Issued at 3:52 am EST Saturday 17 November 2018 (issued every 10 minutes, with the page automatically refreshed every 10 minutes)

About weather observations | Map of weather stations | Latest weather observations for QLD | Other Formats
Station Details ID: 200601 Name: CATO ISLAND Lat: -23.25 Lon: 155.54 Height: 6.3 m
Data from the previous 72 hours. | See also: Recent months for locations in Queensland
Date/Time
EST
Temp
°C
App
Temp
°C
Dew
Point
°C
Rel
Hum
%
Delta-T
°C
Wind Press
QNH
hPa
Press
MSL
hPa
Rain since
9am
mm
Dir  Spd
km/h
Gust
km/h
Spd
kts
Gust
kts
17/03:30am 23.5 - - - - - 26 35 14 19 1012.7 - -
17/03:00am 23.3 - - - - - 30 35 16 19 1012.5 1012.5 -
17/02:30am 23.4 - - - - - 30 35 16 19 1012.4 - -
17/02:00am 23.3 - - - - - 28 32 15 17 1012.4 1012.4 -
17/01:30am 23.3 - - - - - 28 32 15 17 1012.7 - -
17/01:00am 23.3 - - - - - 28 32 15 17 1013.0 1013.0 -
17/12:30am 23.2 - - - - - 28 32 15 17 1013.6 - -
17/12:00am 23.2 - - - - - 26 32 14 17 1014.1 1014.0 -
 
Date/Time
EST
Temp
°C
App
Temp
°C
Dew
Point
°C
Rel
Hum
%
Delta-T
°C
Wind Press
QNH
hPa
Press
MSL
hPa
Rain since
9am
mm
Dir  Spd
km/h
Gust
km/h
Spd
kts
Gust
kts
16/11:30pm 23.3 - - - - - 28 32 15 17 1014.5 - -
16/11:00pm 23.3 - - - - - 28 32 15 17 1014.9 1014.8 -
16/10:30pm 23.3 - - - - - 26 35 14 19 1015.2 - -
16/10:00pm 23.3 - - - - - 28 30 15 16 1015.3 1015.3 -
16/09:30pm 23.4 - - - - - 26 32 14 17 1015.3 - -
16/09:00pm 23.6 - - - - - 28 32 15 17 1015.4 1015.4 -
16/08:30pm 23.5 - - - - - 30 35 16 19 1015.1 - -
16/08:00pm 23.5 - - - - - 32 35 17 19 1015.1 1015.1 -
16/07:30pm 23.8 - - - - - 32 35 17 19 1014.9 - -
16/07:00pm 23.8 - - - - - 30 35 16 19 1014.8 1014.8 -
16/06:30pm 23.7 - - - - - 28 33 15 18 1014.6 - -
16/06:00pm 23.8 - - - - - 30 33 16 18 1014.3 1014.3 -
16/05:30pm 23.8 - - - - - 30 32 16 17 1014.0 - -
16/05:00pm 24.0 - - - - - 28 32 15 17 1013.6 1013.6 -
16/04:30pm 24.1 - - - - - 28 32 15 17 1013.4 - -
16/04:00pm 24.2 - - - - - 28 33 15 18 1013.2 1013.3 -
16/03:30pm 24.0 - - - - - 30 33 16 18 1013.1 - -
16/03:00pm 24.4 - - - - - 28 32 15 17 1013.2 1013.2 -
16/02:30pm 24.3 - - - - - 30 33 16 18 1013.3 - -
16/02:00pm 24.5 - - - - - 28 35 15 19 1013.5 1013.5 -
16/01:30pm 24.5 - - - - - 28 33 15 18 1013.7 - -
16/01:00pm 24.0 - - - - - 26 30 14 16 1014.1 1014.0 -
16/12:30pm 24.7 - - - - - 24 28 13 15 1014.5 - -
16/12:00pm 24.5 - - - - - 24 28 13 15 1014.8 1014.8 -
16/11:30am 24.5 - - - - - 28 32 15 17 1015.0 - -
16/11:00am 24.4 - - - - - 26 32 14 17 1015.3 1015.3 -
16/10:30am 24.5 - - - - - 24 28 13 15 1015.4 - -
16/10:00am 24.3 - - - - - 24 30 13 16 1015.7 1015.6 -
16/09:30am 24.7 - - - - - 24 26 13 14 1015.8 - -
16/09:00am 24.2 - - - - - 24 28 13 15 1015.7 1015.7 -
16/08:30am 24.1 - - - - - 24 28 13 15 1015.7 - -
16/08:00am 24.0 - - - - - 24 28 13 15 1015.6 1015.6 -
16/07:30am 23.9 - - - - - 26 30 14 16 1015.6 - -
16/07:00am 23.7 - - - - - 26 30 14 16 1015.5 1015.5 -
16/06:30am 23.5 - - - - - 26 30 14 16 1015.4 - -
16/06:00am 23.3 - - - - - 28 32 15 17 1015.3 1015.3 -
16/05:30am 23.2 - - - - - 28 32 15 17 1014.9 - -
16/05:00am 22.8 - - - - - 28 33 15 18 1014.7 1014.7 -
16/04:30am 22.8 - - - - - 26 30 14 16 1014.6 - -
16/04:00am 22.8 - - - - - 24 28 13 15 1014.5 1014.5 -
16/03:30am 22.6 - - - - - 24 28 13 15 1014.3 - -
16/03:00am 22.6 - - - - - 24 28 13 15 1014.3 1014.2 -
16/02:30am 22.6 - - - - - 24 28 13 15 1014.4 - -
16/02:00am 22.6 - - - - - 26 32 14 17 1014.4 1014.4 -
16/01:30am 22.8 - - - - - 26 30 14 16 1014.6 - -
16/01:00am 22.8 - - - - - 28 32 15 17 1014.8 1014.8 -
16/12:30am 22.8 - - - - - 28 32 15 17 1015.2 - -
16/12:00am 23.0 - - - - - 28 35 15 19 1015.5 1015.5 -
 
Date/Time
EST
Temp
°C
App
Temp
°C
Dew
Point
°C
Rel
Hum
%
Delta-T
°C
Wind Press
QNH
hPa
Press
MSL
hPa
Rain since
9am
mm
Dir  Spd
km/h
Gust
km/h
Spd
kts
Gust
kts
15/11:30pm 22.9 - - - - - 30 35 16 19 1015.8 - -
15/11:00pm 23.0 - - - - - 30 35 16 19 1016.0 1016.0 -
15/10:30pm 23.1 - - - - - 30 33 16 18 1016.2 - -
15/10:00pm 23.2 - - - - - 32 35 17 19 1016.4 1016.4 -
15/09:30pm 23.1 - - - - - 32 35 17 19 1016.5 - -
15/09:00pm 23.3 - - - - - 30 33 16 18 1016.5 1016.5 -
15/08:30pm 23.3 - - - - - 28 33 15 18 1016.4 - -
15/08:00pm 23.3 - - - - - 28 33 15 18 1016.3 1016.3 -
15/07:30pm 23.5 - - - - - 30 35 16 19 1016.2 - -
15/07:00pm 23.3 - - - - - 30 33 16 18 1016.1 1016.2 -
15/06:30pm 23.4 - - - - - 28 32 15 17 1016.0 - -
15/06:00pm 23.4 - - - - - 30 33 16 18 1015.6 1015.6 -
15/05:30pm 23.7 - - - - - 28 32 15 17 1015.3 - -
15/05:00pm 23.8 - - - - - 28 32 15 17 1015.0 1015.1 -
15/04:30pm 23.8 - - - - - 28 32 15 17 1014.9 - -
15/04:00pm 24.1 - - - - - 26 28 14 15 1014.8 1014.8 -
15/03:30pm 24.1 - - - - - 24 30 13 16 1015.0 - -
15/03:00pm 24.1 - - - - - 26 28 14 15 1015.1 1015.1 -
15/02:30pm 24.1 - - - - - 26 30 14 16 1015.2 - -
15/02:00pm 24.3 - - - - - 24 28 13 15 1015.3 1015.3 -
15/01:30pm 24.4 - - - - - 24 28 13 15 1015.4 - -
15/01:00pm 24.6 - - - - - 22 26 12 14 1015.6 1015.6 -
15/12:30pm 24.4 - - - - - 22 26 12 14 1015.8 - -
15/12:00pm 24.6 - - - - - 20 24 11 13 1016.2 1016.1 -
15/11:30am 24.5 - - - - - 20 22 11 12 1016.4 - -
15/11:00am 24.8 - - - - - 20 24 11 13 1016.6 1016.5 -
15/10:30am 24.3 - - - - - 20 24 11 13 1016.8 - -
15/10:00am 24.5 - - - - - 20 24 11 13 1016.9 1016.9 -
15/09:30am 24.5 - - - - - 22 24 12 13 1017.1 - -
15/09:00am 24.4 - - - - - 22 26 12 14 1017.1 1017.0 -
15/08:30am 24.2 - - - - - 24 28 13 15 1017.0 - -
15/08:00am 24.2 - - - - - 24 28 13 15 1017.1 1017.0 -
15/07:30am 23.9 - - - - - 24 26 13 14 1017.0 - -
15/07:00am 23.7 - - - - - 24 28 13 15 1016.6 1016.7 -
15/06:30am 23.5 - - - - - 26 30 14 16 1016.2 - -
15/06:00am 23.4 - - - - - 26 30 14 16 1015.9 1016.0 -
15/05:30am 23.3 - - - - - 28 32 15 17 1015.5 - -
15/05:00am 23.0 - - - - - 30 35 16 19 1015.3 1015.3 -
15/04:30am 23.0 - - - - - 30 35 16 19 1015.0 - -
15/04:00am 23.1 - - - - - 32 35 17 19 1014.5 1014.6 -
15/03:30am 23.0 - - - - - 30 35 16 19 1014.3 - -
15/03:00am 22.9 - - - - - 30 33 16 18 1014.2 1014.2 -
15/02:30am 22.9 - - - - - 30 35 16 19 1014.2 - -
15/02:00am 23.0 - - - - - 28 33 15 18 1014.3 1014.3 -
15/01:30am 23.1 - - - - - 28 32 15 17 1014.6 - -
15/01:00am 23.1 - - - - - 28 32 15 17 1014.7 1014.7 -
15/12:30am 23.1 - - - - - 28 32 15 17 1015.1 - -
15/12:00am 23.2 - - - - - 26 30 14 16 1015.8 1015.7 -
 
Date/Time
EST
Temp
°C
App
Temp
°C
Dew
Point
°C
Rel
Hum
%
Delta-T
°C
Wind Press
QNH
hPa
Press
MSL
hPa
Rain since
9am
mm
Dir  Spd
km/h
Gust
km/h
Spd
kts
Gust
kts
14/11:30pm 23.3 - - - - - 28 32 15 17 1015.9 - -
14/11:00pm 23.3 - - - - - 28 32 15 17 1016.2 1016.2 -
14/10:30pm 23.2 - - - - - 28 32 15 17 1016.5 - -
14/10:00pm 23.3 - - - - - 26 30 14 16 1017.1 1017.1 -
14/09:30pm 23.4 - - - - - 28 32 15 17 1017.0 - -
14/09:00pm 23.5 - - - - - 28 32 15 17 1016.9 1016.9 -
14/08:30pm 23.5 - - - - - 28 32 15 17 1016.9 - -
14/08:00pm 23.6 - - - - - 26 30 14 16 1017.0 1017.0 -
14/07:30pm 23.6 - - - - - 26 30 14 16 1016.7 - -
14/07:00pm 23.6 - - - - - 26 30 14 16 1016.5 1016.5 -
14/06:30pm 23.6 - - - - - 26 30 14 16 1016.2 - -
14/06:00pm 23.7 - - - - - 26 30 14 16 1016.1 1016.1 -
14/05:30pm 23.8 - - - - - 26 28 14 15 1015.9 - -
14/05:00pm 23.8 - - - - - 24 28 13 15 1015.6 1015.6 -
14/04:30pm 24.0 - - - - - 26 28 14 15 1015.3 - -
14/04:00pm 24.1 - - - - - 24 28 13 15 1015.2 1015.2 -
14/03:30pm 24.3 - - - - - 26 30 14 16 1015.1 - -
14/03:00pm 24.4 - - - - - 26 30 14 16 1015.0 1015.0 -
14/02:30pm 24.2 - - - - - 26 28 14 15 1014.9 - -
14/02:00pm 24.3 - - - - - 26 30 14 16 1014.9 1014.9 -
14/01:30pm 24.4 - - - - - 26 28 14 15 1015.0 - -
14/01:00pm 24.2 - - - - - 26 30 14 16 1015.4 1015.4 -
14/12:30pm 24.5 - - - - - 26 30 14 16 1015.5 - -
14/12:00pm 24.5 - - - - - 26 30 14 16 1015.8 1015.7 -
14/11:30am 24.6 - - - - - 24 28 13 15 1016.1 - -
14/11:00am 24.4 - - - - - 24 28 13 15 1016.3 1016.2 -
14/10:30am 24.5 - - - - - 26 30 14 16 1016.2 - -
14/10:00am 24.4 - - - - - 28 32 15 17 1016.2 1016.3 -
14/09:30am 24.2 - - - - - 32 35 17 19 1016.2 - -
14/09:00am 24.0 - - - - - 32 37 17 20 1016.0 1016.0 -
14/08:30am 23.7 - - - - - 28 30 15 16 1016.2 - -
14/08:00am 23.1 - - - - - 32 35 17 19 1016.3 1016.3 -
14/07:30am 23.7 - - - - - 30 35 16 19 1016.0 - -
14/07:00am 23.3 - - - - - 32 35 17 19 1015.8 1015.8 -
14/06:30am 23.3 - - - - - 28 30 15 16 1015.5 - -
14/06:00am 23.6 - - - - - 30 35 16 19 1015.2 1015.2 -
14/05:30am 23.3 - - - - - 28 32 15 17 1014.9 - -
14/05:00am 23.2 - - - - - 28 32 15 17 1014.6 1014.6 -
14/04:30am 23.2 - - - - - 30 33 16 18 1014.2 - -
14/04:00am 23.2 - - - - - 30 35 16 19 1013.8 1013.9 -

Other Formats:

Comma delimited format used in spreadsheet applications
http://www.bom.gov.au/fwo/IDQ60801/IDQ60801.94394.axf

JavaScript Object Notation format (JSON) in row-major order
http://www.bom.gov.au/fwo/IDQ60801/IDQ60801.94394.json